sensor_id;sensor_type;location;lat;lon;timestamp;temperature;humidity
29577;DHT22;16509;53.862;10.672;2022-09-29T00:00:10;7.90;99.90
29577;DHT22;16509;53.862;10.672;2022-09-29T00:02:36;8.00;99.90
29577;DHT22;16509;53.862;10.672;2022-09-29T00:05:01;7.70;99.90
29577;DHT22;16509;53.862;10.672;2022-09-29T00:07:28;8.00;99.90
29577;DHT22;16509;53.862;10.672;2022-09-29T00:09:53;7.60;99.90
29577;DHT22;16509;53.862;10.672;2022-09-29T00:12:19;7.80;99.90
29577;DHT22;16509;53.862;10.672;2022-09-29T00:14:45;7.80;99.90
29577;DHT22;16509;53.862;10.672;2022-09-29T00:17:11;7.80;99.90
29577;DHT22;16509;53.862;10.672;2022-09-29T00:19:36;7.70;99.90
29577;DHT22;16509;53.862;10.672;2022-09-29T00:22:02;9.90;99.90
29577;DHT22;16509;53.862;10.672;2022-09-29T00:24:27;7.60;99.90
29577;DHT22;16509;53.862;10.672;2022-09-29T00:26:54;8.00;99.90
29577;DHT22;16509;53.862;10.672;2022-09-29T00:29:19;7.70;99.90
29577;DHT22;16509;53.862;10.672;2022-09-29T00:31:45;7.70;99.90
29577;DHT22;16509;53.862;10.672;2022-09-29T00:34:10;7.60;99.90
29577;DHT22;16509;53.862;10.672;2022-09-29T00:36:36;7.70;99.90
29577;DHT22;16509;53.862;10.672;2022-09-29T00:39:02;7.70;99.90
29577;DHT22;16509;53.862;10.672;2022-09-29T00:41:32;9.10;99.90
29577;DHT22;16509;53.862;10.672;2022-09-29T00:44:04;7.50;99.90
29577;DHT22;16509;53.862;10.672;2022-09-29T00:49:48;7.90;99.90
29577;DHT22;16509;53.862;10.672;2022-09-29T00:52:22;7.80;99.90
29577;DHT22;16509;53.862;10.672;2022-09-29T00:54:52;7.80;99.90
29577;DHT22;16509;53.862;10.672;2022-09-29T00:57:24;7.80;99.90
29577;DHT22;16509;53.862;10.672;2022-09-29T01:00:06;7.50;99.90
29577;DHT22;16509;53.862;10.672;2022-09-29T01:02:38;7.80;99.90
29577;DHT22;16509;53.862;10.672;2022-09-29T01:05:08;7.50;99.90
29577;DHT22;16509;53.862;10.672;2022-09-29T01:07:35;7.80;99.90
29577;DHT22;16509;53.862;10.672;2022-09-29T01:10:01;7.60;99.90
29577;DHT22;16509;53.862;10.672;2022-09-29T01:12:26;8.00;99.90
29577;DHT22;16509;53.862;10.672;2022-09-29T01:14:53;7.70;99.90
29577;DHT22;16509;53.862;10.672;2022-09-29T01:17:20;9.30;99.90
29577;DHT22;16509;53.862;10.672;2022-09-29T01:19:50;8.00;99.90
29577;DHT22;16509;53.862;10.672;2022-09-29T01:22:57;7.00;99.90
29577;DHT22;16509;53.862;10.672;2022-09-29T01:29:06;7.80;99.90
29577;DHT22;16509;53.862;10.672;2022-09-29T01:31:56;7.80;99.90
29577;DHT22;16509;53.862;10.672;2022-09-29T01:35:08;7.80;99.90
29577;DHT22;16509;53.862;10.672;2022-09-29T01:41:26;7.80;99.90
29577;DHT22;16509;53.862;10.672;2022-09-29T01:43:46;7.80;99.90
29577;DHT22;16509;53.862;10.672;2022-09-29T01:48:49;7.70;99.90
29577;DHT22;16509;53.862;10.672;2022-09-29T01:51:20;8.00;99.90
29577;DHT22;16509;53.862;10.672;2022-09-29T01:53:49;7.40;99.90
29577;DHT22;16509;53.862;10.672;2022-09-29T01:56:37;7.40;99.90
29577;DHT22;16509;53.862;10.672;2022-09-29T01:59:29;7.80;99.90
29577;DHT22;16509;53.862;10.672;2022-09-29T02:02:02;7.80;99.90
29577;DHT22;16509;53.862;10.672;2022-09-29T02:04:40;7.70;99.90
29577;DHT22;16509;53.862;10.672;2022-09-29T02:07:22;7.70;99.90
29577;DHT22;16509;53.862;10.672;2022-09-29T02:10:03;7.80;99.90
29577;DHT22;16509;53.862;10.672;2022-09-29T02:12:32;7.70;99.90
29577;DHT22;16509;53.862;10.672;2022-09-29T02:15:01;7.70;99.90
29577;DHT22;16509;53.862;10.672;2022-09-29T02:17:32;7.70;99.90
29577;DHT22;16509;53.862;10.672;2022-09-29T02:19:59;7.60;99.90
29577;DHT22;16509;53.862;10.672;2022-09-29T02:22:25;7.80;99.90
29577;DHT22;16509;53.862;10.672;2022-09-29T02:24:54;7.80;99.90
29577;DHT22;16509;53.862;10.672;2022-09-29T02:27:22;7.50;99.90
29577;DHT22;16509;53.862;10.672;2022-09-29T02:29:48;7.30;99.90
29577;DHT22;16509;53.862;10.672;2022-09-29T02:32:14;7.40;99.90
29577;DHT22;16509;53.862;10.672;2022-09-29T02:34:42;7.50;99.90
29577;DHT22;16509;53.862;10.672;2022-09-29T02:39:53;8.40;99.90
29577;DHT22;16509;53.862;10.672;2022-09-29T02:45:06;7.50;99.90
29577;DHT22;16509;53.862;10.672;2022-09-29T02:59:06;7.50;99.90
29577;DHT22;16509;53.862;10.672;2022-09-29T03:01:34;7.40;99.90
29577;DHT22;16509;53.862;10.672;2022-09-29T03:04:00;7.30;99.90
29577;DHT22;16509;53.862;10.672;2022-09-29T03:06:25;7.30;99.90
29577;DHT22;16509;53.862;10.672;2022-09-29T03:08:52;7.40;99.90
29577;DHT22;16509;53.862;10.672;2022-09-29T03:11:17;7.30;99.90
29577;DHT22;16509;53.862;10.672;2022-09-29T03:13:43;7.10;99.90
29577;DHT22;16509;53.862;10.672;2022-09-29T03:16:08;7.10;99.90
29577;DHT22;16509;53.862;10.672;2022-09-29T03:18:34;7.20;99.90
29577;DHT22;16509;53.862;10.672;2022-09-29T03:20:59;7.10;99.90
29577;DHT22;16509;53.862;10.672;2022-09-29T03:23:26;7.10;99.90
29577;DHT22;16509;53.862;10.672;2022-09-29T03:25:52;6.90;99.90
29577;DHT22;16509;53.862;10.672;2022-09-29T03:28:18;7.00;99.90
29577;DHT22;16509;53.862;10.672;2022-09-29T03:30:43;7.00;99.90
29577;DHT22;16509;53.862;10.672;2022-09-29T03:33:10;9.10;99.90
29577;DHT22;16509;53.862;10.672;2022-09-29T03:35:37;7.00;99.90
29577;DHT22;16509;53.862;10.672;2022-09-29T03:38:03;7.30;99.90
29577;DHT22;16509;53.862;10.672;2022-09-29T03:40:28;7.00;99.90
29577;DHT22;16509;53.862;10.672;2022-09-29T03:42:54;7.30;99.90
29577;DHT22;16509;53.862;10.672;2022-09-29T03:45:19;7.20;99.90
29577;DHT22;16509;53.862;10.672;2022-09-29T03:47:45;6.70;99.90
29577;DHT22;16509;53.862;10.672;2022-09-29T03:50:12;7.00;99.90
29577;DHT22;16509;53.862;10.672;2022-09-29T03:52:37;7.20;99.90
29577;DHT22;16509;53.862;10.672;2022-09-29T03:55:03;6.80;99.90
29577;DHT22;16509;53.862;10.672;2022-09-29T03:57:29;7.30;99.90
29577;DHT22;16509;53.862;10.672;2022-09-29T03:59:55;7.40;99.90
29577;DHT22;16509;53.862;10.672;2022-09-29T04:02:21;7.10;99.90
29577;DHT22;16509;53.862;10.672;2022-09-29T04:04:47;7.00;99.90
29577;DHT22;16509;53.862;10.672;2022-09-29T04:07:13;6.80;99.90
29577;DHT22;16509;53.862;10.672;2022-09-29T04:09:38;7.00;99.90
29577;DHT22;16509;53.862;10.672;2022-09-29T04:12:04;6.90;99.90
29577;DHT22;16509;53.862;10.672;2022-09-29T04:14:29;7.20;99.90
29577;DHT22;16509;53.862;10.672;2022-09-29T04:16:55;9.10;99.90
29577;DHT22;16509;53.862;10.672;2022-09-29T04:19:21;6.60;99.90
29577;DHT22;16509;53.862;10.672;2022-09-29T04:21:46;7.10;99.90
29577;DHT22;16509;53.862;10.672;2022-09-29T04:24:12;7.00;99.90
29577;DHT22;16509;53.862;10.672;2022-09-29T04:26:38;7.10;99.90
29577;DHT22;16509;53.862;10.672;2022-09-29T04:29:04;6.90;99.90
29577;DHT22;16509;53.862;10.672;2022-09-29T04:31:31;8.80;99.90
29577;DHT22;16509;53.862;10.672;2022-09-29T04:34:00;6.40;99.90
29577;DHT22;16509;53.862;10.672;2022-09-29T04:36:26;7.10;99.90
29577;DHT22;16509;53.862;10.672;2022-09-29T04:38:51;6.90;99.90
29577;DHT22;16509;53.862;10.672;2022-09-29T04:41:17;7.10;99.90
29577;DHT22;16509;53.862;10.672;2022-09-29T04:43:43;7.00;99.90
29577;DHT22;16509;53.862;10.672;2022-09-29T04:46:09;6.80;99.90
29577;DHT22;16509;53.862;10.672;2022-09-29T04:48:35;6.80;99.90
29577;DHT22;16509;53.862;10.672;2022-09-29T04:51:02;6.80;99.90
29577;DHT22;16509;53.862;10.672;2022-09-29T04:53:28;7.10;99.90
29577;DHT22;16509;53.862;10.672;2022-09-29T04:55:53;7.10;99.90
29577;DHT22;16509;53.862;10.672;2022-09-29T04:58:19;6.90;99.90
29577;DHT22;16509;53.862;10.672;2022-09-29T05:00:45;6.90;99.90
29577;DHT22;16509;53.862;10.672;2022-09-29T05:03:10;6.90;99.90
29577;DHT22;16509;53.862;10.672;2022-09-29T05:05:36;7.60;99.90
29577;DHT22;16509;53.862;10.672;2022-09-29T05:08:05;6.80;99.90
29577;DHT22;16509;53.862;10.672;2022-09-29T05:10:31;7.10;99.90
29577;DHT22;16509;53.862;10.672;2022-09-29T05:12:57;7.20;99.90
29577;DHT22;16509;53.862;10.672;2022-09-29T05:15:23;7.60;99.90
29577;DHT22;16509;53.862;10.672;2022-09-29T05:17:49;7.10;99.90
29577;DHT22;16509;53.862;10.672;2022-09-29T05:20:15;7.20;99.90
29577;DHT22;16509;53.862;10.672;2022-09-29T05:22:41;7.20;99.90
29577;DHT22;16509;53.862;10.672;2022-09-29T05:25:07;7.10;99.90
29577;DHT22;16509;53.862;10.672;2022-09-29T05:27:37;7.10;99.90
29577;DHT22;16509;53.862;10.672;2022-09-29T05:30:03;7.10;99.90
29577;DHT22;16509;53.862;10.672;2022-09-29T05:32:29;7.10;99.90
29577;DHT22;16509;53.862;10.672;2022-09-29T05:34:55;7.10;99.90
29577;DHT22;16509;53.862;10.672;2022-09-29T05:37:20;7.00;99.90
29577;DHT22;16509;53.862;10.672;2022-09-29T05:39:46;6.80;99.90
29577;DHT22;16509;53.862;10.672;2022-09-29T05:42:12;6.90;99.90
29577;DHT22;16509;53.862;10.672;2022-09-29T05:44:37;7.40;99.90
29577;DHT22;16509;53.862;10.672;2022-09-29T05:47:03;6.80;99.90
29577;DHT22;16509;53.862;10.672;2022-09-29T05:49:28;7.40;99.90
29577;DHT22;16509;53.862;10.672;2022-09-29T05:51:56;6.70;99.90
29577;DHT22;16509;53.862;10.672;2022-09-29T05:54:21;6.90;99.90
29577;DHT22;16509;53.862;10.672;2022-09-29T05:56:48;6.80;99.90
29577;DHT22;16509;53.862;10.672;2022-09-29T05:59:14;7.10;99.90
29577;DHT22;16509;53.862;10.672;2022-09-29T06:01:39;7.00;99.90
29577;DHT22;16509;53.862;10.672;2022-09-29T06:04:05;7.00;99.90
29577;DHT22;16509;53.862;10.672;2022-09-29T06:06:30;6.80;99.90
29577;DHT22;16509;53.862;10.672;2022-09-29T06:08:57;7.10;99.90
29577;DHT22;16509;53.862;10.672;2022-09-29T06:11:26;7.20;99.90
29577;DHT22;16509;53.862;10.672;2022-09-29T06:13:52;7.20;99.90
29577;DHT22;16509;53.862;10.672;2022-09-29T06:16:20;7.10;99.90
29577;DHT22;16509;53.862;10.672;2022-09-29T06:18:46;7.10;99.90
29577;DHT22;16509;53.862;10.672;2022-09-29T06:21:21;8.30;99.90
29577;DHT22;16509;53.862;10.672;2022-09-29T06:23:48;7.20;99.90
29577;DHT22;16509;53.862;10.672;2022-09-29T06:26:15;7.10;99.90
29577;DHT22;16509;53.862;10.672;2022-09-29T06:28:41;7.20;99.90
29577;DHT22;16509;53.862;10.672;2022-09-29T06:31:15;7.30;99.90
29577;DHT22;16509;53.862;10.672;2022-09-29T06:33:41;7.50;99.90
29577;DHT22;16509;53.862;10.672;2022-09-29T06:38:55;7.30;99.90
29577;DHT22;16509;53.862;10.672;2022-09-29T06:41:21;8.30;99.90
29577;DHT22;16509;53.862;10.672;2022-09-29T06:43:47;7.30;99.90
29577;DHT22;16509;53.862;10.672;2022-09-29T06:46:12;7.60;99.90
29577;DHT22;16509;53.862;10.672;2022-09-29T06:48:38;7.40;99.90
29577;DHT22;16509;53.862;10.672;2022-09-29T06:51:07;7.50;99.90
29577;DHT22;16509;53.862;10.672;2022-09-29T06:53:34;9.80;99.90
29577;DHT22;16509;53.862;10.672;2022-09-29T06:56:00;7.70;99.90
29577;DHT22;16509;53.862;10.672;2022-09-29T06:58:27;7.90;99.90
29577;DHT22;16509;53.862;10.672;2022-09-29T07:00:53;7.60;99.90
29577;DHT22;16509;53.862;10.672;2022-09-29T07:03:20;7.60;99.90
29577;DHT22;16509;53.862;10.672;2022-09-29T07:05:46;7.60;99.90
29577;DHT22;16509;53.862;10.672;2022-09-29T07:08:11;7.60;99.90
29577;DHT22;16509;53.862;10.672;2022-09-29T07:10:37;7.70;99.90
29577;DHT22;16509;53.862;10.672;2022-09-29T07:13:02;7.60;99.90
29577;DHT22;16509;53.862;10.672;2022-09-29T07:15:28;8.10;99.90
29577;DHT22;16509;53.862;10.672;2022-09-29T07:17:59;7.90;99.90
29577;DHT22;16509;53.862;10.672;2022-09-29T07:20:27;7.80;99.90
29577;DHT22;16509;53.862;10.672;2022-09-29T07:22:53;7.90;99.90
29577;DHT22;16509;53.862;10.672;2022-09-29T07:25:20;8.10;99.90
29577;DHT22;16509;53.862;10.672;2022-09-29T07:27:53;8.20;99.90
29577;DHT22;16509;53.862;10.672;2022-09-29T07:31:05;8.50;99.90
29577;DHT22;16509;53.862;10.672;2022-09-29T07:33:31;8.20;99.90
29577;DHT22;16509;53.862;10.672;2022-09-29T07:35:57;7.90;99.90
29577;DHT22;16509;53.862;10.672;2022-09-29T07:38:26;7.90;99.90
29577;DHT22;16509;53.862;10.672;2022-09-29T07:40:59;8.00;99.90
29577;DHT22;16509;53.862;10.672;2022-09-29T07:43:26;8.40;99.90
29577;DHT22;16509;53.862;10.672;2022-09-29T07:45:54;8.10;99.90
29577;DHT22;16509;53.862;10.672;2022-09-29T07:48:20;8.90;99.90
29577;DHT22;16509;53.862;10.672;2022-09-29T07:50:46;10.80;99.90
29577;DHT22;16509;53.862;10.672;2022-09-29T07:53:12;5.60;99.90
29577;DHT22;16509;53.862;10.672;2022-09-29T07:55:38;10.90;99.90
29577;DHT22;16509;53.862;10.672;2022-09-29T07:58:04;9.00;99.90
29577;DHT22;16509;53.862;10.672;2022-09-29T08:00:30;12.90;99.90
29577;DHT22;16509;53.862;10.672;2022-09-29T08:03:04;8.10;99.90
29577;DHT22;16509;53.862;10.672;2022-09-29T08:05:32;7.60;99.90
29577;DHT22;16509;53.862;10.672;2022-09-29T08:07:59;8.40;99.90
29577;DHT22;16509;53.862;10.672;2022-09-29T08:10:26;8.80;99.90
29577;DHT22;16509;53.862;10.672;2022-09-29T08:12:52;8.90;99.90
29577;DHT22;16509;53.862;10.672;2022-09-29T08:15:21;11.10;99.90
29577;DHT22;16509;53.862;10.672;2022-09-29T08:17:48;8.90;99.90
29577;DHT22;16509;53.862;10.672;2022-09-29T08:20:16;10.20;99.90
29577;DHT22;16509;53.862;10.672;2022-09-29T08:22:42;11.30;99.90
29577;DHT22;16509;53.862;10.672;2022-09-29T08:25:08;11.90;99.90
29577;DHT22;16509;53.862;10.672;2022-09-29T08:52:43;10.00;99.90
29577;DHT22;16509;53.862;10.672;2022-09-29T08:55:46;10.00;99.90
29577;DHT22;16509;53.862;10.672;2022-09-29T08:58:13;10.90;99.90
29577;DHT22;16509;53.862;10.672;2022-09-29T09:01:06;9.70;99.90
29577;DHT22;16509;53.862;10.672;2022-09-29T09:06:25;9.90;99.90
29577;DHT22;16509;53.862;10.672;2022-09-29T09:17:17;9.80;99.90
29577;DHT22;16509;53.862;10.672;2022-09-29T09:22:50;10.40;99.90
29577;DHT22;16509;53.862;10.672;2022-09-29T09:25:28;12.10;99.90
29577;DHT22;16509;53.862;10.672;2022-09-29T09:31:02;12.40;99.90
29577;DHT22;16509;53.862;10.672;2022-09-29T09:52:11;10.70;99.90
29577;DHT22;16509;53.862;10.672;2022-09-29T09:55:12;10.90;99.90
29577;DHT22;16509;53.862;10.672;2022-09-29T10:26:44;11.40;99.90
29577;DHT22;16509;53.862;10.672;2022-09-29T10:29:44;13.70;99.90
29577;DHT22;16509;53.862;10.672;2022-09-29T10:32:50;11.00;99.90
29577;DHT22;16509;53.862;10.672;2022-09-29T10:36:21;7.60;99.90
29577;DHT22;16509;53.862;10.672;2022-09-29T11:09:27;12.40;99.90
29577;DHT22;16509;53.862;10.672;2022-09-29T11:12:47;12.90;99.90
29577;DHT22;16509;53.862;10.672;2022-09-29T11:31:17;10.70;99.90
29577;DHT22;16509;53.862;10.672;2022-09-29T11:37:43;13.00;99.90
29577;DHT22;16509;53.862;10.672;2022-09-29T11:52:59;12.90;99.90
29577;DHT22;16509;53.862;10.672;2022-09-29T12:18:37;11.50;99.90
29577;DHT22;16509;53.862;10.672;2022-09-29T12:21:45;11.30;99.90
29577;DHT22;16509;53.862;10.672;2022-09-29T12:25:12;12.70;99.90
29577;DHT22;16509;53.862;10.672;2022-09-29T12:28:13;12.10;99.90
29577;DHT22;16509;53.862;10.672;2022-09-29T12:30:46;10.40;99.90
29577;DHT22;16509;53.862;10.672;2022-09-29T12:33:21;11.00;99.90
29577;DHT22;16509;53.862;10.672;2022-09-29T12:36:00;11.60;99.90
29577;DHT22;16509;53.862;10.672;2022-09-29T12:38:41;11.50;99.90
29577;DHT22;16509;53.862;10.672;2022-09-29T12:41:20;11.20;99.90
29577;DHT22;16509;53.862;10.672;2022-09-29T12:44:06;11.70;99.90
29577;DHT22;16509;53.862;10.672;2022-09-29T12:46:46;11.50;99.90
29577;DHT22;16509;53.862;10.672;2022-09-29T12:56:17;11.80;99.90
29577;DHT22;16509;53.862;10.672;2022-09-29T12:58:39;11.80;99.90
29577;DHT22;16509;53.862;10.672;2022-09-29T13:01:21;12.10;99.90
29577;DHT22;16509;53.862;10.672;2022-09-29T13:03:55;12.20;99.90
29577;DHT22;16509;53.862;10.672;2022-09-29T13:17:38;11.90;99.90
29577;DHT22;16509;53.862;10.672;2022-09-29T13:25:31;11.90;99.90
29577;DHT22;16509;53.862;10.672;2022-09-29T13:28:00;11.80;99.90
29577;DHT22;16509;53.862;10.672;2022-09-29T13:30:36;11.60;99.90
29577;DHT22;16509;53.862;10.672;2022-09-29T13:33:14;11.50;99.90
29577;DHT22;16509;53.862;10.672;2022-09-29T13:35:44;11.80;99.90
29577;DHT22;16509;53.862;10.672;2022-09-29T13:38:23;14.00;99.90
29577;DHT22;16509;53.862;10.672;2022-09-29T13:49:15;11.70;99.90
29577;DHT22;16509;53.862;10.672;2022-09-29T13:51:45;11.60;99.90
29577;DHT22;16509;53.862;10.672;2022-09-29T13:59:32;12.10;99.90
29577;DHT22;16509;53.862;10.672;2022-09-29T14:01:58;11.60;99.90
29577;DHT22;16509;53.862;10.672;2022-09-29T14:04:34;11.60;99.90
29577;DHT22;16509;53.862;10.672;2022-09-29T14:07:02;11.80;99.90
29577;DHT22;16509;53.862;10.672;2022-09-29T14:09:40;11.30;99.90
29577;DHT22;16509;53.862;10.672;2022-09-29T14:12:15;11.70;99.90
29577;DHT22;16509;53.862;10.672;2022-09-29T14:14:49;11.70;99.90
29577;DHT22;16509;53.862;10.672;2022-09-29T14:17:32;11.70;99.90
29577;DHT22;16509;53.862;10.672;2022-09-29T14:20:13;11.10;99.90
29577;DHT22;16509;53.862;10.672;2022-09-29T14:22:53;11.20;99.90
29577;DHT22;16509;53.862;10.672;2022-09-29T14:28:27;11.00;99.90
29577;DHT22;16509;53.862;10.672;2022-09-29T14:30:58;11.10;99.90
29577;DHT22;16509;53.862;10.672;2022-09-29T14:33:35;11.00;99.90
29577;DHT22;16509;53.862;10.672;2022-09-29T14:36:12;11.00;99.90
29577;DHT22;16509;53.862;10.672;2022-09-29T14:38:49;10.80;99.90
29577;DHT22;16509;53.862;10.672;2022-09-29T15:02:50;10.60;99.90
29577;DHT22;16509;53.862;10.672;2022-09-29T15:05:29;10.20;99.90
29577;DHT22;16509;53.862;10.672;2022-09-29T15:08:29;10.50;99.90
29577;DHT22;16509;53.862;10.672;2022-09-29T15:45:55;11.30;99.90
29577;DHT22;16509;53.862;10.672;2022-09-29T15:52:32;10.10;99.90
29577;DHT22;16509;53.862;10.672;2022-09-29T15:55:18;10.60;99.90
29577;DHT22;16509;53.862;10.672;2022-09-29T15:57:48;10.40;99.90
29577;DHT22;16509;53.862;10.672;2022-09-29T16:07:36;11.70;99.90
29577;DHT22;16509;53.862;10.672;2022-09-29T16:10:37;10.30;99.90
29577;DHT22;16509;53.862;10.672;2022-09-29T16:16:43;10.30;99.90
29577;DHT22;16509;53.862;10.672;2022-09-29T16:30:35;9.90;99.90
29577;DHT22;16509;53.862;10.672;2022-09-29T17:07:08;9.70;99.90
29577;DHT22;16509;53.862;10.672;2022-09-29T17:13:55;10.50;99.90
29577;DHT22;16509;53.862;10.672;2022-09-29T17:16:29;9.70;99.90
29577;DHT22;16509;53.862;10.672;2022-09-29T17:29:15;9.60;99.90
29577;DHT22;16509;53.862;10.672;2022-09-29T17:31:40;8.40;99.90
29577;DHT22;16509;53.862;10.672;2022-09-29T17:34:06;11.30;99.90
29577;DHT22;16509;53.862;10.672;2022-09-29T17:36:33;11.80;99.90
29577;DHT22;16509;53.862;10.672;2022-09-29T17:39:05;9.30;99.90
29577;DHT22;16509;53.862;10.672;2022-09-29T17:41:30;9.70;99.90
29577;DHT22;16509;53.862;10.672;2022-09-29T17:43:57;12.20;99.90
29577;DHT22;16509;53.862;10.672;2022-09-29T17:46:23;9.30;99.90
29577;DHT22;16509;53.862;10.672;2022-09-29T17:48:48;9.30;99.90
29577;DHT22;16509;53.862;10.672;2022-09-29T17:51:15;9.30;99.90
29577;DHT22;16509;53.862;10.672;2022-09-29T17:53:46;9.50;99.90
29577;DHT22;16509;53.862;10.672;2022-09-29T17:56:24;9.50;99.90
29577;DHT22;16509;53.862;10.672;2022-09-29T17:58:51;9.70;99.90
29577;DHT22;16509;53.862;10.672;2022-09-29T18:01:21;9.50;99.90
29577;DHT22;16509;53.862;10.672;2022-09-29T18:03:47;9.50;99.90
29577;DHT22;16509;53.862;10.672;2022-09-29T18:06:17;9.70;99.90
29577;DHT22;16509;53.862;10.672;2022-09-29T18:08:48;9.40;99.90
29577;DHT22;16509;53.862;10.672;2022-09-29T18:11:21;9.30;99.90
29577;DHT22;16509;53.862;10.672;2022-09-29T18:13:47;8.70;99.90
29577;DHT22;16509;53.862;10.672;2022-09-29T18:16:17;9.70;99.90
29577;DHT22;16509;53.862;10.672;2022-09-29T18:18:43;10.00;99.90
29577;DHT22;16509;53.862;10.672;2022-09-29T18:21:10;9.60;99.90
29577;DHT22;16509;53.862;10.672;2022-09-29T18:23:36;9.30;99.90
29577;DHT22;16509;53.862;10.672;2022-09-29T18:26:03;10.90;99.90
29577;DHT22;16509;53.862;10.672;2022-09-29T18:28:29;9.70;99.90
29577;DHT22;16509;53.862;10.672;2022-09-29T18:31:11;11.80;99.90
29577;DHT22;16509;53.862;10.672;2022-09-29T18:33:39;10.00;99.90
29577;DHT22;16509;53.862;10.672;2022-09-29T18:36:07;9.60;99.90
29577;DHT22;16509;53.862;10.672;2022-09-29T18:38:34;9.50;99.90
29577;DHT22;16509;53.862;10.672;2022-09-29T18:40:59;9.40;99.90
29577;DHT22;16509;53.862;10.672;2022-09-29T18:43:25;11.20;99.90
29577;DHT22;16509;53.862;10.672;2022-09-29T18:45:54;9.40;99.90
29577;DHT22;16509;53.862;10.672;2022-09-29T18:51:17;9.60;99.90
29577;DHT22;16509;53.862;10.672;2022-09-29T18:53:43;12.30;99.90
29577;DHT22;16509;53.862;10.672;2022-09-29T18:56:14;11.60;99.90
29577;DHT22;16509;53.862;10.672;2022-09-29T18:58:43;13.00;99.90
29577;DHT22;16509;53.862;10.672;2022-09-29T19:01:13;10.50;99.90
29577;DHT22;16509;53.862;10.672;2022-09-29T19:03:39;9.40;99.90
29577;DHT22;16509;53.862;10.672;2022-09-29T19:06:07;9.60;99.90
29577;DHT22;16509;53.862;10.672;2022-09-29T19:08:32;9.60;99.90
29577;DHT22;16509;53.862;10.672;2022-09-29T19:10:58;9.50;99.90
29577;DHT22;16509;53.862;10.672;2022-09-29T19:13:24;9.50;99.90
29577;DHT22;16509;53.862;10.672;2022-09-29T19:15:55;9.40;99.90
29577;DHT22;16509;53.862;10.672;2022-09-29T19:18:22;9.50;99.90
29577;DHT22;16509;53.862;10.672;2022-09-29T19:20:54;9.80;99.90
29577;DHT22;16509;53.862;10.672;2022-09-29T19:23:20;9.60;99.90
29577;DHT22;16509;53.862;10.672;2022-09-29T19:25:48;9.60;99.90
29577;DHT22;16509;53.862;10.672;2022-09-29T19:28:15;9.60;99.90
29577;DHT22;16509;53.862;10.672;2022-09-29T19:30:42;9.60;99.90
29577;DHT22;16509;53.862;10.672;2022-09-29T19:33:11;9.70;99.90
29577;DHT22;16509;53.862;10.672;2022-09-29T19:35:43;9.60;99.90
29577;DHT22;16509;53.862;10.672;2022-09-29T19:38:09;11.00;99.90
29577;DHT22;16509;53.862;10.672;2022-09-29T19:40:36;9.70;99.90
29577;DHT22;16509;53.862;10.672;2022-09-29T19:43:02;9.50;99.90
29577;DHT22;16509;53.862;10.672;2022-09-29T19:45:33;9.60;99.90
29577;DHT22;16509;53.862;10.672;2022-09-29T19:48:06;9.50;99.90
29577;DHT22;16509;53.862;10.672;2022-09-29T19:50:32;9.90;99.90
29577;DHT22;16509;53.862;10.672;2022-09-29T19:53:16;9.60;99.90
29577;DHT22;16509;53.862;10.672;2022-09-29T19:55:42;9.80;99.90
29577;DHT22;16509;53.862;10.672;2022-09-29T19:58:09;10.10;99.90
29577;DHT22;16509;53.862;10.672;2022-09-29T20:00:37;10.30;99.90
29577;DHT22;16509;53.862;10.672;2022-09-29T20:03:05;10.20;99.90
29577;DHT22;16509;53.862;10.672;2022-09-29T20:05:31;9.70;99.90
29577;DHT22;16509;53.862;10.672;2022-09-29T20:07:56;9.50;99.90
29577;DHT22;16509;53.862;10.672;2022-09-29T20:10:22;9.70;99.90
29577;DHT22;16509;53.862;10.672;2022-09-29T20:12:51;9.60;99.90
29577;DHT22;16509;53.862;10.672;2022-09-29T20:15:17;11.40;99.90
29577;DHT22;16509;53.862;10.672;2022-09-29T20:17:43;9.80;99.90
29577;DHT22;16509;53.862;10.672;2022-09-29T20:20:09;9.60;99.90
29577;DHT22;16509;53.862;10.672;2022-09-29T20:22:36;9.70;99.90
29577;DHT22;16509;53.862;10.672;2022-09-29T20:25:03;11.30;99.90
29577;DHT22;16509;53.862;10.672;2022-09-29T20:27:30;10.00;99.90
29577;DHT22;16509;53.862;10.672;2022-09-29T20:29:56;9.60;99.90
29577;DHT22;16509;53.862;10.672;2022-09-29T20:32:22;10.20;99.90
29577;DHT22;16509;53.862;10.672;2022-09-29T20:34:47;9.70;99.90
29577;DHT22;16509;53.862;10.672;2022-09-29T20:37:13;9.80;99.90
29577;DHT22;16509;53.862;10.672;2022-09-29T20:39:39;9.80;99.90
29577;DHT22;16509;53.862;10.672;2022-09-29T20:42:04;9.80;99.90
29577;DHT22;16509;53.862;10.672;2022-09-29T20:44:30;10.20;99.90
29577;DHT22;16509;53.862;10.672;2022-09-29T20:46:56;9.80;99.90
29577;DHT22;16509;53.862;10.672;2022-09-29T20:49:23;9.80;99.90
29577;DHT22;16509;53.862;10.672;2022-09-29T20:51:49;9.70;99.90
29577;DHT22;16509;53.862;10.672;2022-09-29T20:54:16;9.90;99.90
29577;DHT22;16509;53.862;10.672;2022-09-29T20:56:41;9.90;99.90
29577;DHT22;16509;53.862;10.672;2022-09-29T20:59:18;10.90;99.90
29577;DHT22;16509;53.862;10.672;2022-09-29T21:01:44;10.00;99.90
29577;DHT22;16509;53.862;10.672;2022-09-29T21:04:12;11.60;99.90
29577;DHT22;16509;53.862;10.672;2022-09-29T21:06:40;9.70;99.90
29577;DHT22;16509;53.862;10.672;2022-09-29T21:09:14;10.00;99.90
29577;DHT22;16509;53.862;10.672;2022-09-29T21:11:40;10.00;99.90
29577;DHT22;16509;53.862;10.672;2022-09-29T21:14:10;9.70;99.90
29577;DHT22;16509;53.862;10.672;2022-09-29T21:16:37;9.70;99.90
29577;DHT22;16509;53.862;10.672;2022-09-29T21:19:07;9.80;99.90
29577;DHT22;16509;53.862;10.672;2022-09-29T21:21:32;10.00;99.90
29577;DHT22;16509;53.862;10.672;2022-09-29T21:23:58;9.70;99.90
29577;DHT22;16509;53.862;10.672;2022-09-29T21:26:27;10.00;99.90
29577;DHT22;16509;53.862;10.672;2022-09-29T21:28:56;9.70;99.90
29577;DHT22;16509;53.862;10.672;2022-09-29T21:31:24;9.70;99.90
29577;DHT22;16509;53.862;10.672;2022-09-29T21:33:55;10.10;99.90
29577;DHT22;16509;53.862;10.672;2022-09-29T21:36:22;9.90;99.90
29577;DHT22;16509;53.862;10.672;2022-09-29T21:38:49;9.70;99.90
29577;DHT22;16509;53.862;10.672;2022-09-29T21:41:18;9.70;99.90
29577;DHT22;16509;53.862;10.672;2022-09-29T21:43:48;9.60;99.90
29577;DHT22;16509;53.862;10.672;2022-09-29T21:46:17;9.90;99.90
29577;DHT22;16509;53.862;10.672;2022-09-29T21:48:43;9.60;99.90
29577;DHT22;16509;53.862;10.672;2022-09-29T21:51:14;11.40;99.90
29577;DHT22;16509;53.862;10.672;2022-09-29T21:53:40;9.80;99.90
29577;DHT22;16509;53.862;10.672;2022-09-29T21:56:09;9.90;99.90
29577;DHT22;16509;53.862;10.672;2022-09-29T21:58:35;9.90;99.90
29577;DHT22;16509;53.862;10.672;2022-09-29T22:01:01;9.70;99.90
29577;DHT22;16509;53.862;10.672;2022-09-29T22:03:30;9.60;99.90
29577;DHT22;16509;53.862;10.672;2022-09-29T22:05:56;10.70;99.90
29577;DHT22;16509;53.862;10.672;2022-09-29T22:08:22;9.80;99.90